createdAt,value
2019-04-21T00:02:28.469Z,46.44
2019-04-21T00:05:10.843Z,46.49
2019-04-21T00:07:40.325Z,46.72
2019-04-21T00:10:09.067Z,46.55
2019-04-21T00:12:31.149Z,48.10
2019-04-21T00:14:49.698Z,47.41
2019-04-21T00:17:12.926Z,47.30
2019-04-21T00:20:07.625Z,47.33
2019-04-21T00:22:34.164Z,46.94
2019-04-21T00:25:04.222Z,48.77
2019-04-21T00:27:33.445Z,48.02
2019-04-21T00:30:03.319Z,48.09
2019-04-21T00:32:25.451Z,47.78
2019-04-21T00:34:42.030Z,47.77
2019-04-21T00:37:18.023Z,47.84
2019-04-21T00:40:09.418Z,48.84
2019-04-21T00:42:22.711Z,48.61
2019-04-21T00:44:44.377Z,48.19
2019-04-21T00:47:18.012Z,49.22
2019-04-21T00:49:46.681Z,49.77
2019-04-21T00:52:36.682Z,51.21
2019-04-21T00:54:59.751Z,50.89
2019-04-21T00:57:28.796Z,49.64
2019-04-21T00:59:48.394Z,49.72
2019-04-21T01:02:10.915Z,49.87
2019-04-21T01:04:43.030Z,49.87
2019-04-21T01:07:11.141Z,49.68
2019-04-21T01:09:32.716Z,49.33
2019-04-21T01:12:04.590Z,49.19
2019-04-21T01:14:34.354Z,49.13
2019-04-21T01:17:03.858Z,49.00
2019-04-21T01:19:32.080Z,49.08
2019-04-21T01:21:34.966Z,49.28
2019-04-21T01:24:07.730Z,49.32
2019-04-21T01:26:42.751Z,50.07
2019-04-21T01:29:14.464Z,49.80
2019-04-21T01:31:43.866Z,49.92
2019-04-21T01:34:14.851Z,49.88
2019-04-21T01:36:38.852Z,50.41
2019-04-21T01:39:15.031Z,49.88
2019-04-21T01:41:41.345Z,50.01
2019-04-21T01:44:01.179Z,50.07
2019-04-21T01:46:28.446Z,50.17
2019-04-21T01:48:54.149Z,50.09
2019-04-21T01:51:22.327Z,50.02
2019-04-21T01:54:09.298Z,49.74
2019-04-21T01:56:40.485Z,49.72
2019-04-21T01:59:00.780Z,50.05
2019-04-21T02:01:49.275Z,50.07
2019-04-21T02:04:11.017Z,49.96
2019-04-21T02:06:36.230Z,50.08
2019-04-21T02:08:57.975Z,49.67
2019-04-21T02:11:29.990Z,49.87
2019-04-21T02:14:07.410Z,49.96
2019-04-21T02:16:25.157Z,49.60
2019-04-21T02:18:53.132Z,50.54
2019-04-21T02:21:16.700Z,50.42
2019-04-21T02:23:57.064Z,50.36
2019-04-21T02:26:16.386Z,50.03
2019-04-21T02:28:50.563Z,49.81
2019-04-21T02:31:28.696Z,50.16
2019-04-21T02:33:55.703Z,50.45
2019-04-21T02:39:02.347Z,49.84
2019-04-21T02:41:06.032Z,50.03
2019-04-21T02:43:50.225Z,49.88
2019-04-21T02:46:12.994Z,49.71
2019-04-21T02:48:38.983Z,50.33
2019-04-21T02:51:05.577Z,49.99
2019-04-21T02:53:45.508Z,50.46
2019-04-21T02:56:00.227Z,50.58
2019-04-21T03:01:05.237Z,50.56
2019-04-21T03:03:36.434Z,49.89
2019-04-21T03:06:27.140Z,50.14
2019-04-21T03:11:17.063Z,49.96
2019-04-21T03:13:54.829Z,50.20
2019-04-21T03:21:15.798Z,49.89
2019-04-21T03:23:53.543Z,49.99
2019-04-21T03:26:10.316Z,50.02
2019-04-21T03:31:19.200Z,49.87
2019-04-21T03:38:27.040Z,49.96
2019-04-21T03:40:49.701Z,50.03
2019-04-21T03:43:23.106Z,50.00
2019-04-21T03:45:42.434Z,49.97
2019-04-21T03:48:21.662Z,50.03
2019-04-21T03:50:41.244Z,51.21
2019-04-21T03:53:09.344Z,51.21
2019-04-21T03:55:58.624Z,50.96
2019-04-21T03:58:16.948Z,50.40
2019-04-21T04:03:39.515Z,50.87
2019-04-21T04:06:02.009Z,50.76
2019-04-21T04:08:44.786Z,50.95
2019-04-21T04:11:15.163Z,50.74
2019-04-21T04:13:27.660Z,51.08
2019-04-21T04:15:56.583Z,51.11
2019-04-21T04:18:28.584Z,51.05
2019-04-21T04:25:53.219Z,50.92
2019-04-21T04:28:22.909Z,51.35
2019-04-21T04:33:12.418Z,51.80
2019-04-21T04:35:52.931Z,52.24
2019-04-21T04:43:11.745Z,51.43
2019-04-21T04:48:10.999Z,53.20
2019-04-21T04:55:29.219Z,51.96
2019-04-21T05:00:28.203Z,51.11
2019-04-21T05:02:48.861Z,50.99
2019-04-21T05:05:24.219Z,51.22
2019-04-21T05:07:50.093Z,51.85
2019-04-21T05:10:06.763Z,51.25
2019-04-21T05:12:38.489Z,51.54
2019-04-21T05:15:10.084Z,51.91
2019-04-21T05:20:08.633Z,52.83
2019-04-21T05:24:44.103Z,52.69
2019-04-21T05:27:25.028Z,52.80
2019-04-21T05:30:00.436Z,52.39
2019-04-21T05:32:41.710Z,51.86
2019-04-21T05:35:11.161Z,52.41
2019-04-21T05:37:35.160Z,55.09
2019-04-21T05:40:00.643Z,53.42
2019-04-21T05:42:35.243Z,54.05
2019-04-21T05:45:07.989Z,54.39
2019-04-21T05:47:41.629Z,53.59
2019-04-21T05:50:06.486Z,56.12
2019-04-21T05:52:34.027Z,54.64
2019-04-21T05:55:09.578Z,54.96
2019-04-21T05:57:33.354Z,55.80
2019-04-21T06:00:07.588Z,55.30
2019-04-21T06:07:31.329Z,56.08
2019-04-21T06:09:57.203Z,56.09
2019-04-21T06:12:23.789Z,55.69
2019-04-21T06:17:25.350Z,55.09
2019-04-21T06:19:52.626Z,55.06
2019-04-21T06:22:10.348Z,56.15
2019-04-21T06:24:54.761Z,55.28
2019-04-21T06:27:08.451Z,54.64
2019-04-21T06:29:42.094Z,55.09
2019-04-21T06:32:20.434Z,54.72
2019-04-21T06:34:43.237Z,54.79
2019-04-21T06:37:07.817Z,55.63
2019-04-21T06:39:31.795Z,55.43
2019-04-21T06:41:59.826Z,54.46
2019-04-21T06:44:26.384Z,54.49
2019-04-21T06:46:48.909Z,54.62
2019-04-21T06:49:16.160Z,54.50
2019-04-21T06:51:48.297Z,55.11
2019-04-21T06:54:16.197Z,54.71
2019-04-21T06:56:58.497Z,55.04
2019-04-21T06:59:09.334Z,54.74
2019-04-21T07:01:45.601Z,55.28
2019-04-21T07:06:43.672Z,55.61
2019-04-21T07:11:28.756Z,55.25
2019-04-21T07:14:16.169Z,54.59
2019-04-21T07:16:32.176Z,54.93
2019-04-21T07:18:51.269Z,55.11
2019-04-21T07:21:23.508Z,54.77
2019-04-21T07:23:53.865Z,54.31
2019-04-21T07:26:22.292Z,54.46
2019-04-21T07:28:47.844Z,54.58
2019-04-21T07:31:22.795Z,54.75
2019-04-21T07:33:53.809Z,53.88
2019-04-21T07:36:16.276Z,53.91
2019-04-21T07:38:36.590Z,53.86
2019-04-21T07:40:56.732Z,54.01
2019-04-21T07:43:28.625Z,53.46
2019-04-21T07:45:52.779Z,53.59
2019-04-21T07:48:38.083Z,53.51
2019-04-21T07:51:18.886Z,53.73
2019-04-21T07:53:55.893Z,54.17
2019-04-21T07:56:06.251Z,53.83
2019-04-21T07:58:45.849Z,53.88
2019-04-21T08:01:11.954Z,53.38
2019-04-21T08:03:40.590Z,53.01
2019-04-21T08:06:18.724Z,53.26
2019-04-21T08:08:34.209Z,53.11
2019-04-21T08:11:02.699Z,53.26
2019-04-21T08:13:39.470Z,53.24
2019-04-21T08:15:57.751Z,52.99
2019-04-21T08:18:27.085Z,53.34
2019-04-21T08:20:54.697Z,53.16
2019-04-21T08:23:25.630Z,53.10
2019-04-21T08:26:07.859Z,52.96
2019-04-21T08:28:22.499Z,53.33
2019-04-21T08:30:43.224Z,53.21
2019-04-21T08:33:29.220Z,53.54
2019-04-21T08:38:10.588Z,53.11
2019-04-21T08:40:49.487Z,53.29
2019-04-21T08:43:02.480Z,53.35
2019-04-21T08:45:35.392Z,53.00
2019-04-21T08:47:58.242Z,53.16
2019-04-21T08:50:27.378Z,52.82
2019-04-21T08:52:56.795Z,52.99
2019-04-21T08:55:32.164Z,53.49
2019-04-21T08:58:30.839Z,53.07
2019-04-21T09:00:38.835Z,53.16
2019-04-21T09:03:06.680Z,53.18
2019-04-21T09:05:35.610Z,52.76
2019-04-21T09:08:06.663Z,52.39
2019-04-21T09:10:37.828Z,52.98
2019-04-21T09:13:02.921Z,52.75
2019-04-21T09:15:24.935Z,52.90
2019-04-21T09:17:48.928Z,53.28
2019-04-21T09:20:33.061Z,52.93
2019-04-21T09:22:52.587Z,52.65
2019-04-21T09:25:26.582Z,52.46
2019-04-21T09:27:42.013Z,52.60
2019-04-21T09:30:01.256Z,52.71
2019-04-21T09:32:27.620Z,52.59
2019-04-21T09:34:52.736Z,52.21
2019-04-21T09:37:28.666Z,52.62
2019-04-21T09:39:51.700Z,52.57
2019-04-21T09:42:17.688Z,52.27
2019-04-21T09:44:44.420Z,52.77
2019-04-21T09:47:11.047Z,52.48
2019-04-21T09:49:39.543Z,52.25
2019-04-21T09:52:07.922Z,52.74
2019-04-21T09:54:40.899Z,53.06
2019-04-21T09:57:07.127Z,52.87
2019-04-21T09:59:33.567Z,53.11
2019-04-21T10:02:06.625Z,53.13
2019-04-21T10:04:24.531Z,53.73
2019-04-21T10:06:50.504Z,53.30
2019-04-21T10:09:19.771Z,53.08
2019-04-21T10:11:44.393Z,52.98
2019-04-21T10:14:11.626Z,53.22
2019-04-21T10:16:40.628Z,53.40
2019-04-21T10:19:06.932Z,53.34
2019-04-21T10:21:33.916Z,53.00
2019-04-21T10:23:59.926Z,53.48
2019-04-21T10:26:26.434Z,53.22
2019-04-21T10:28:52.990Z,53.21
2019-04-21T10:31:18.969Z,53.16
2019-04-21T10:33:46.165Z,53.62
2019-04-21T10:36:13.138Z,53.22
2019-04-21T10:38:44.654Z,53.71
2019-04-21T10:41:07.703Z,53.90
2019-04-21T10:43:33.588Z,53.90
2019-04-21T10:46:01.100Z,54.21
2019-04-21T10:48:28.401Z,53.85
2019-04-21T10:50:54.965Z,54.48
2019-04-21T10:53:27.026Z,54.44
2019-04-21T10:56:06.466Z,54.63
2019-04-21T10:58:22.639Z,54.41
2019-04-21T11:00:57.831Z,54.49
2019-04-21T11:03:40.546Z,54.42
2019-04-21T11:06:12.585Z,54.79
2019-04-21T11:08:44.115Z,54.66
2019-04-21T11:11:07.873Z,54.62
2019-04-21T11:13:34.755Z,54.34
2019-04-21T11:16:01.395Z,54.62
2019-04-21T11:18:28.212Z,54.38
2019-04-21T11:20:55.179Z,54.66
2019-04-21T11:23:22.379Z,54.37
2019-04-21T11:28:24.757Z,54.65
2019-04-21T11:30:51.091Z,54.39
2019-04-21T11:33:17.386Z,54.81
2019-04-21T11:35:43.522Z,54.84
2019-04-21T11:38:17.974Z,55.18
2019-04-21T11:40:39.974Z,55.06
2019-04-21T11:43:06.110Z,55.33
2019-04-21T11:45:36.698Z,55.81
2019-04-21T11:48:24.225Z,55.92
2019-04-21T11:50:50.971Z,56.61
2019-04-21T11:53:17.000Z,56.47
2019-04-21T11:55:45.369Z,56.92
2019-04-21T11:58:11.866Z,56.73
2019-04-21T12:00:37.998Z,56.28
2019-04-21T12:03:04.262Z,56.78
2019-04-21T12:05:30.345Z,57.24
2019-04-21T12:07:58.541Z,56.95
2019-04-21T12:10:24.867Z,56.38
2019-04-21T12:12:51.126Z,56.46
2019-04-21T12:15:17.144Z,56.84
2019-04-21T12:17:43.996Z,56.29
2019-04-21T12:20:10.641Z,57.42
2019-04-21T12:22:37.424Z,57.13
2019-04-21T12:25:07.130Z,57.28
2019-04-21T12:27:33.984Z,57.10
2019-04-21T12:29:59.827Z,57.31
2019-04-21T12:32:30.549Z,57.26
2019-04-21T12:34:57.816Z,57.44
2019-04-21T12:37:24.687Z,56.83
2019-04-21T12:39:50.633Z,57.70
2019-04-21T12:42:16.761Z,57.92
2019-04-21T12:44:43.417Z,57.61
2019-04-21T12:47:10.053Z,57.47
2019-04-21T12:49:36.146Z,57.36
2019-04-21T12:52:02.153Z,57.43
2019-04-21T12:54:28.183Z,57.75
2019-04-21T12:56:54.126Z,58.16
2019-04-21T12:59:21.107Z,57.30
2019-04-21T13:01:47.062Z,57.55
2019-04-21T13:04:13.482Z,57.70
2019-04-21T13:06:39.536Z,57.85
2019-04-21T13:09:09.367Z,58.14
2019-04-21T13:11:33.478Z,58.32
2019-04-21T13:13:59.862Z,58.05
2019-04-21T13:16:25.810Z,58.72
2019-04-21T13:18:53.334Z,58.39
2019-04-21T13:21:20.194Z,58.14
2019-04-21T13:23:47.219Z,58.11
2019-04-21T13:26:13.329Z,57.84
2019-04-21T13:28:40.342Z,57.64
2019-04-21T13:31:06.557Z,57.45
2019-04-21T13:33:33.397Z,57.66
2019-04-21T13:36:00.267Z,57.76
2019-04-21T13:38:34.646Z,57.65
2019-04-21T13:41:13.170Z,57.37
2019-04-21T13:43:27.354Z,58.00
2019-04-21T13:45:54.058Z,57.87
2019-04-21T13:48:20.269Z,57.66
2019-04-21T13:50:47.081Z,58.07
2019-04-21T13:53:14.288Z,57.32
2019-04-21T13:55:42.301Z,57.45
2019-04-21T13:58:08.584Z,57.55
2019-04-21T14:00:35.828Z,57.73
2019-04-21T14:03:02.915Z,57.73
2019-04-21T14:05:29.000Z,57.07
2019-04-21T14:07:56.214Z,57.09
2019-04-21T14:10:23.865Z,57.31
2019-04-21T14:12:50.663Z,57.38
2019-04-21T14:15:20.109Z,57.40
2019-04-21T14:17:46.759Z,57.33
2019-04-21T14:20:13.234Z,57.13
2019-04-21T14:22:40.036Z,57.73
2019-04-21T14:25:07.956Z,57.30
2019-04-21T14:27:34.397Z,57.65
2019-04-21T14:32:42.130Z,57.47
2019-04-21T14:35:09.072Z,57.01
2019-04-21T14:37:35.116Z,56.85
2019-04-21T14:40:06.853Z,57.69
2019-04-21T14:42:29.849Z,57.51
2019-04-21T14:44:56.836Z,57.63
2019-04-21T14:47:35.025Z,57.71
2019-04-21T14:50:19.439Z,58.61
2019-04-21T14:52:46.596Z,58.22
2019-04-21T14:55:14.638Z,57.99
2019-04-21T14:57:41.158Z,58.46
2019-04-21T15:00:09.265Z,58.91
2019-04-21T15:02:36.003Z,58.40
2019-04-21T15:05:03.912Z,58.43
2019-04-21T15:07:30.925Z,58.29
2019-04-21T15:10:04.727Z,58.21
2019-04-21T15:12:25.780Z,58.93
2019-04-21T15:14:51.932Z,58.94
2019-04-21T15:17:20.727Z,58.36
2019-04-21T15:19:52.274Z,58.17
2019-04-21T15:22:14.520Z,58.44
2019-04-21T15:24:40.484Z,58.49
2019-04-21T15:27:07.170Z,59.49
2019-04-21T15:29:33.347Z,59.51
2019-04-21T15:31:59.204Z,59.23
2019-04-21T15:34:25.973Z,59.12
2019-04-21T15:36:53.195Z,58.97
2019-04-21T15:39:19.530Z,59.24
2019-04-21T15:41:45.601Z,59.77
2019-04-21T15:44:12.468Z,59.66
2019-04-21T15:46:39.765Z,59.13
2019-04-21T15:49:06.989Z,59.89
2019-04-21T15:51:33.771Z,59.14
2019-04-21T15:54:00.893Z,59.19
2019-04-21T15:56:38.531Z,59.11
2019-04-21T15:59:06.570Z,59.29
2019-04-21T16:01:37.005Z,59.31
2019-04-21T16:04:04.714Z,58.73
2019-04-21T16:06:31.950Z,59.56
2019-04-21T16:09:00.871Z,59.84
2019-04-21T16:11:26.023Z,59.68
2019-04-21T16:13:52.089Z,59.79
2019-04-21T16:16:18.260Z,60.25
2019-04-21T16:18:45.830Z,59.93
2019-04-21T16:21:11.943Z,60.63
2019-04-21T16:23:38.291Z,60.26
2019-04-21T16:26:06.607Z,60.13
2019-04-21T16:28:33.326Z,60.60
2019-04-21T16:31:00.516Z,60.33
2019-04-21T16:33:27.165Z,59.70
2019-04-21T16:35:53.756Z,59.42
2019-04-21T16:38:19.744Z,60.03
2019-04-21T16:40:55.577Z,60.94
2019-04-21T16:43:14.294Z,60.35
2019-04-21T16:45:41.102Z,60.41
2019-04-21T16:48:07.412Z,60.07
2019-04-21T16:50:33.954Z,59.88
2019-04-21T16:53:01.895Z,59.62
2019-04-21T16:55:57.338Z,60.16
2019-04-21T16:58:40.890Z,60.72
2019-04-21T17:01:15.929Z,60.44
2019-04-21T17:03:40.160Z,60.44
2019-04-21T17:06:06.994Z,60.38
2019-04-21T17:08:33.938Z,60.65
2019-04-21T17:11:10.565Z,60.33
2019-04-21T17:13:27.557Z,60.63
2019-04-21T17:16:16.443Z,60.55
2019-04-21T17:18:37.284Z,60.32
2019-04-21T17:20:55.379Z,59.93
2019-04-21T17:23:17.612Z,60.08
2019-04-21T17:25:43.618Z,60.47
2019-04-21T17:28:09.816Z,59.97
2019-04-21T17:30:36.729Z,59.97
2019-04-21T17:33:03.580Z,60.19
2019-04-21T17:35:31.080Z,60.35
2019-04-21T17:37:58.362Z,60.02
2019-04-21T17:40:26.162Z,60.11
2019-04-21T17:43:01.311Z,59.83
2019-04-21T17:45:21.240Z,59.98
2019-04-21T17:47:55.619Z,59.90
2019-04-21T17:50:20.594Z,60.24
2019-04-21T17:52:55.749Z,60.37
2019-04-21T17:55:26.194Z,60.02
2019-04-21T17:58:04.503Z,59.68
2019-04-21T18:00:57.815Z,59.67
2019-04-21T18:03:06.995Z,59.80
2019-04-21T18:05:41.004Z,59.61
2019-04-21T18:08:01.110Z,59.66
2019-04-21T18:10:30.681Z,59.18
2019-04-21T18:12:52.384Z,58.88
2019-04-21T18:15:29.084Z,59.22
2019-04-21T18:17:38.581Z,59.09
2019-04-21T18:20:05.970Z,59.07
2019-04-21T18:22:46.905Z,58.83
2019-04-21T18:25:28.147Z,58.79
2019-04-21T18:27:42.694Z,59.54
2019-04-21T18:30:28.389Z,59.53
2019-04-21T18:32:57.002Z,59.88
2019-04-21T18:35:24.609Z,59.51
2019-04-21T18:38:03.464Z,59.69
2019-04-21T18:40:30.857Z,60.13
2019-04-21T18:43:27.656Z,59.81
2019-04-21T18:45:56.835Z,59.30
2019-04-21T18:48:17.213Z,59.29
2019-04-21T18:50:47.763Z,59.28
2019-04-21T18:53:24.034Z,59.51
2019-04-21T18:55:43.499Z,59.89
2019-04-21T18:58:05.258Z,59.61
2019-04-21T19:00:34.546Z,59.94
2019-04-21T19:03:00.200Z,60.83
2019-04-21T19:05:29.624Z,60.30
2019-04-21T19:08:11.861Z,60.13
2019-04-21T19:10:39.662Z,60.00
2019-04-21T19:13:31.637Z,59.92
2019-04-21T19:15:34.258Z,60.03
2019-04-21T19:20:38.736Z,59.96
2019-04-21T19:22:57.025Z,60.26
2019-04-21T19:25:36.864Z,59.74
2019-04-21T19:27:56.908Z,59.37
2019-04-21T19:30:36.654Z,59.76
2019-04-21T19:32:51.011Z,60.28
2019-04-21T19:35:07.114Z,60.14
2019-04-21T19:37:40.067Z,60.66
2019-04-21T19:40:12.121Z,61.76
2019-04-21T19:42:37.570Z,60.99
2019-04-21T19:45:10.774Z,61.07
2019-04-21T19:47:47.375Z,60.51
2019-04-21T19:50:12.089Z,61.20
2019-04-21T19:52:30.707Z,62.44
2019-04-21T19:54:49.106Z,61.93
2019-04-21T19:57:14.180Z,62.81
2019-04-21T19:59:47.216Z,63.45
2019-04-21T20:02:08.994Z,62.71
2019-04-21T20:04:42.782Z,62.47
2019-04-21T20:07:22.094Z,62.54
2019-04-21T20:09:45.135Z,61.99
2019-04-21T20:12:18.845Z,61.76
2019-04-21T20:14:55.445Z,61.53
2019-04-21T20:17:08.349Z,61.34
2019-04-21T20:19:22.930Z,60.79
2019-04-21T20:21:51.121Z,60.49
2019-04-21T20:24:24.345Z,60.67
2019-04-21T20:26:54.697Z,60.96
2019-04-21T20:29:27.598Z,60.97
2019-04-21T20:31:57.450Z,60.85
2019-04-21T20:34:30.070Z,60.66
2019-04-21T20:36:56.759Z,60.94
2019-04-21T20:39:12.618Z,60.89
2019-04-21T20:41:44.262Z,60.76
2019-04-21T20:44:18.490Z,60.57
2019-04-21T20:46:45.022Z,60.31
2019-04-21T20:49:08.379Z,60.59
2019-04-21T20:51:43.598Z,61.73
2019-04-21T20:54:08.700Z,61.73
2019-04-21T20:56:40.920Z,61.47
2019-04-21T20:58:59.768Z,61.63
2019-04-21T21:01:39.490Z,61.41
2019-04-21T21:03:58.000Z,61.46
2019-04-21T21:06:26.086Z,61.43
2019-04-21T21:08:58.162Z,61.35
2019-04-21T21:11:25.469Z,61.17
2019-04-21T21:13:52.074Z,60.89
2019-04-21T21:16:29.642Z,60.77
2019-04-21T21:21:15.179Z,60.97
2019-04-21T21:23:42.537Z,61.49
2019-04-21T21:26:16.104Z,61.08
2019-04-21T21:28:32.604Z,61.05
2019-04-21T21:31:07.451Z,61.14
2019-04-21T21:33:37.302Z,60.96
2019-04-21T21:36:06.647Z,60.85
2019-04-21T21:38:31.202Z,61.96
2019-04-21T21:40:56.015Z,61.31
2019-04-21T21:43:12.890Z,61.58
2019-04-21T21:45:42.660Z,61.23
2019-04-21T21:48:24.771Z,61.09
2019-04-21T21:50:44.410Z,61.26
2019-04-21T21:53:07.606Z,61.29
2019-04-21T21:55:27.818Z,61.21
2019-04-21T21:57:58.806Z,61.19
2019-04-21T22:00:23.981Z,61.02
2019-04-21T22:02:53.203Z,60.79
2019-04-21T22:05:25.414Z,60.82
2019-04-21T22:07:46.949Z,60.84
2019-04-21T22:10:13.089Z,61.01
2019-04-21T22:12:49.129Z,60.47
2019-04-21T22:15:12.637Z,60.33
2019-04-21T22:17:49.645Z,60.50
2019-04-21T22:20:22.845Z,60.15
2019-04-21T22:22:42.578Z,60.36
2019-04-21T22:25:09.503Z,60.47
2019-04-21T22:27:27.366Z,60.25
2019-04-21T22:29:58.095Z,60.41
2019-04-21T22:32:26.812Z,60.32
2019-04-21T22:34:54.847Z,60.38
2019-04-21T22:37:30.676Z,60.36
2019-04-21T22:39:59.496Z,60.32
2019-04-21T22:42:21.528Z,60.04
2019-04-21T22:44:40.608Z,60.06
2019-04-21T22:47:15.653Z,60.19
2019-04-21T22:49:34.857Z,60.53
2019-04-21T22:52:10.346Z,60.87
2019-04-21T22:54:35.490Z,60.74
2019-04-21T22:57:06.473Z,60.27
2019-04-21T22:59:26.766Z,60.21
2019-04-21T23:01:54.390Z,60.33
2019-04-21T23:04:21.044Z,60.52
2019-04-21T23:06:51.329Z,60.43
2019-04-21T23:09:15.045Z,60.00
2019-04-21T23:11:45.667Z,60.25
2019-04-21T23:14:13.128Z,60.23
2019-04-21T23:16:40.294Z,60.20
2019-04-21T23:19:20.124Z,60.10
2019-04-21T23:21:53.859Z,59.99
2019-04-21T23:24:14.974Z,59.99
2019-04-21T23:26:42.411Z,59.86
2019-04-21T23:29:15.726Z,59.51
2019-04-21T23:31:40.202Z,59.73
2019-04-21T23:33:52.453Z,60.00
2019-04-21T23:36:24.153Z,59.99
2019-04-21T23:38:50.086Z,60.00
2019-04-21T23:41:15.295Z,59.67
2019-04-21T23:43:44.799Z,59.34
2019-04-21T23:46:19.816Z,59.51
2019-04-21T23:48:56.003Z,59.71
2019-04-21T23:51:15.883Z,59.59
2019-04-21T23:53:33.414Z,59.54
2019-04-21T23:55:59.481Z,59.42
2019-04-21T23:58:28.133Z,59.58
